Flight Track Log - Related Links

Times and Time Zones

All times are in EDT time to prevent confusion due to time zone crossing. See the WJA395 flight status page for this flight to view local times or setup timezone preferences in your user account.

Time Position Orientation Groundspeed Altitude Reporting Facility
EDT Latitude Longitude Course Direction KTS MPH feet Rate Location/Type
Mon 07:24:51 AM 49.9000 -97.2333 277° West 140 161 1,300  Level Winnipeg Center
Mon 07:25:51 AM 49.9500 -97.2333 360° North 180 207 3,100 2,000 Climbing Winnipeg Center
Mon 07:26:51 AM 49.9833 -97.2833 316° Northwest 250 288 5,300 2,650 Climbing Winnipeg Center
Mon 07:27:51 AM 49.9833 -97.3833 270° West 270 311 8,400 2,727 Climbing Winnipeg Center
Mon 07:28:52 AM 49.9833 -97.5167 270° West 300 345 10,800 2,500 Climbing Winnipeg Center
Mon 07:29:00 AM 49.9973 -98.0560 276° West  Level FlightAware Approximate
Mon 07:29:51 AM 49.9667 -97.6667 260° West 340 391 13,400  Level Winnipeg Center
Mon 07:30:00 AM 50.0204 -98.2169 277° West  Level FlightAware Approximate
Mon 07:30:51 AM 49.9667 -97.8167 270° West 350 403 17,000  Level Winnipeg Center
Mon 07:31:51 AM 49.9833 -97.9500 281° West 350 403 20,000 2,900 Climbing Winnipeg Center
Mon 07:32:51 AM 49.9833 -98.1333 270° West 360 414 22,800 2,500 Climbing Winnipeg Center
Mon 07:33:51 AM 50.0000 -98.3000 279° West 370 426 25,000 2,100 Climbing Winnipeg Center
Mon 07:34:51 AM 50.0167 -98.4500 280° West 380 437 27,000 2,000 Climbing Winnipeg Center
Mon 07:35:51 AM 50.0500 -98.6333 286° West 400 460 29,000 1,900 Climbing Winnipeg Center
Mon 07:36:51 AM 50.0667 -98.7833 280° West 400 460 30,800 2,150 Climbing Winnipeg Center
Mon 07:37:51 AM 50.0833 -98.9667 278° West 400 460 33,300 2,400 Climbing Winnipeg Center
Mon 07:38:51 AM 50.1000 -99.1333 279° West 390 449 35,600 1,750 Climbing Winnipeg Center
Mon 07:39:51 AM 50.1000 -99.2833 270° West 380 437 36,800 1,150 Climbing Winnipeg Center
Mon 07:40:51 AM 50.1167 -99.4667 278° West 390 449 37,900 600 Climbing Winnipeg Center
Mon 07:41:51 AM 50.1333 -99.6333 279° West 390 449 38,000 50 Climbing Winnipeg Center
Mon 07:42:51 AM 50.1500 -99.7833 280° West 390 449 38,000  Level Winnipeg Center
Mon 07:43:51 AM 50.1500 -99.9667 270° West 380 437 38,000  Level Winnipeg Center
Mon 07:44:51 AM 50.1667 -100.1333 279° West 380 437 38,000  Level Winnipeg Center
Mon 07:45:51 AM 50.1833 -100.2833 280° West 380 437 38,000  Level Winnipeg Center
Mon 07:46:51 AM 50.2000 -100.4500 279° West 380 437 38,000  Level Winnipeg Center
Mon 07:47:51 AM 50.2000 -100.6333 270° West 390 449 38,000  Level Winnipeg Center
Mon 07:48:52 AM 50.2167 -100.7833 280° West 390 449 38,000  Level Winnipeg Center
Mon 07:49:51 AM 50.2333 -100.9667 278° West 400 460 38,000  Level Winnipeg Center
Mon 07:50:51 AM 50.2500 -101.1333 279° West 400 460 38,000  Level Winnipeg Center
Mon 07:51:51 AM 50.2667 -101.3167 278° West 400 460 38,000  Level Winnipeg Center
Mon 07:52:51 AM 50.2833 -101.5000 278° West 400 460 38,000  Level Winnipeg Center
Mon 07:53:52 AM 50.2833 -101.6500 270° West 400 460 38,000  Level Winnipeg Center
Mon 07:54:52 AM 50.3000 -101.8333 278° West 400 460 38,000  Level Winnipeg Center
Mon 07:55:52 AM 50.3000 -102.0000 270° West 400 460 38,000  Level Winnipeg Center
Mon 07:56:52 AM 50.3333 -102.1833 286° West 400 460 38,000  Level Winnipeg Center
Mon 07:57:52 AM 50.3333 -102.3500 270° West 390 449 38,000  Level Winnipeg Center
Mon 07:58:52 AM 50.3500 -102.5000 280° West 400 460 38,000  Level Winnipeg Center
Mon 07:59:52 AM 50.3667 -102.6833 278° West 400 460 38,000  Level Winnipeg Center
Mon 08:00:52 AM 50.4000 -102.8500 287° West 400 460 38,000  Level Winnipeg Center
Mon 08:01:52 AM 50.4167 -103.0333 278° West 400 460 38,000  Level Winnipeg Center
Mon 08:02:52 AM 50.4500 -103.2000 287° West 410 472 38,000  Level Winnipeg Center
Mon 08:03:52 AM 50.4667 -103.3667 279° West 410 472 38,000  Level Winnipeg Center
Mon 08:04:52 AM 50.5000 -103.5500 286° West 400 460 38,000  Level Winnipeg Center
Mon 08:05:52 AM 50.5167 -103.7167 279° West 400 460 38,000  Level Winnipeg Center
Mon 08:06:52 AM 50.5333 -103.9000 278° West 400 460 38,000  Level Winnipeg Center
Mon 08:07:52 AM 50.5667 -104.0667 288° West 400 460 38,000  Level Winnipeg Center
Mon 08:08:52 AM 50.5833 -104.2500 278° West 400 460 38,000  Level Winnipeg Center
Mon 08:09:52 AM 50.6167 -104.4167 288° West 400 460 38,000  Level Winnipeg Center
Mon 08:10:52 AM 50.6333 -104.6000 278° West 400 460 38,000  Level Winnipeg Center
Mon 08:11:52 AM 50.6500 -104.7667 279° West 400 460 38,000  Level Winnipeg Center
Mon 08:12:52 AM 50.6833 -104.9167 289° West 410 472 38,000  Level Winnipeg Center
Mon 08:13:52 AM 50.7000 -105.1167 278° West 410 472 38,000  Level Winnipeg Center
Mon 08:14:52 AM 50.7167 -105.2833 279° West 410 472 38,000  Level Winnipeg Center
Mon 08:15:52 AM 50.7333 -105.4667 278° West 410 472 38,000  Level Winnipeg Center
Mon 08:16:52 AM 50.7667 -105.6333 288° West 400 460 38,000  Level Winnipeg Center
Mon 08:17:52 AM 50.7833 -105.8167 278° West 400 460 38,000  Level Winnipeg Center
Mon 08:18:52 AM 50.8000 -105.9833 279° West 410 472 38,000  Level Winnipeg Center
Mon 08:19:52 AM 50.8333 -106.1833 285° West 410 472 38,000  Level Winnipeg Center
Mon 08:20:52 AM 50.8500 -106.3333 280° West 410 472 38,000  Level Winnipeg Center
Mon 08:21:38 AM 50.8500 -106.4333 270° West 400 460 38,000  Level Edmonton Center
Mon 08:22:38 AM 50.8667 -106.6167 278° West 400 460 38,000  Level Edmonton Center
Mon 08:23:38 AM 50.9000 -106.7833 288° West 400 460 38,000  Level Edmonton Center
Mon 08:24:38 AM 50.9167 -106.9667 278° West 410 472 38,000  Level Edmonton Center
Mon 08:25:38 AM 50.9333 -107.1333 279° West 400 460 38,000  Level Edmonton Center
Mon 08:26:38 AM 50.9667 -107.3167 286° West 410 472 38,000  Level Edmonton Center
Mon 08:27:38 AM 50.9667 -107.5167 270° West 410 472 38,000  Level Edmonton Center
Mon 08:28:38 AM 50.9833 -107.7000 278° West 410 472 38,000  Level Edmonton Center
Mon 08:29:38 AM 51.0167 -107.8667 288° West 400 460 38,000  Level Edmonton Center
Mon 08:30:38 AM 51.0333 -108.0500 278° West 400 460 38,000  Level Edmonton Center
Mon 08:31:38 AM 51.0333 -108.2333 270° West 410 472 38,000  Level Edmonton Center
Mon 08:32:38 AM 51.0667 -108.4000 288° West 410 472 38,000  Level Edmonton Center
Mon 08:33:38 AM 51.0833 -108.5833 278° West 410 472 38,000  Level Edmonton Center
Mon 08:34:38 AM 51.1000 -108.7833 278° West 410 472 38,000  Level Edmonton Center
Mon 08:35:38 AM 51.1167 -108.9500 279° West 410 472 38,000  Level Edmonton Center
Mon 08:36:38 AM 51.1333 -109.1333 278° West 410 472 38,000  Level Edmonton Center
Mon 08:37:38 AM 51.1500 -109.3167 278° West 410 472 38,000  Level Edmonton Center
Mon 08:38:38 AM 51.1667 -109.4833 279° West 410 472 38,000  Level Edmonton Center
Mon 08:39:38 AM 51.1667 -109.6833 270° West 410 472 38,000  Level Edmonton Center
Mon 08:40:38 AM 51.2000 -109.8333 290° West 410 472 38,000  Level Edmonton Center
Mon 08:41:38 AM 51.2000 -110.0333 270° West 410 472 38,000  Level Edmonton Center
Mon 08:42:38 AM 51.2333 -110.2167 286° West 410 472 38,000  Level Edmonton Center
Mon 08:43:38 AM 51.2333 -110.4167 270° West 410 472 38,000  Level Edmonton Center
Mon 08:44:38 AM 51.2500 -110.5833 279° West 410 472 38,000  Level Edmonton Center
Mon 08:45:38 AM 51.2667 -110.7667 278° West 410 472 38,000  Level Edmonton Center
Mon 08:46:38 AM 51.2833 -110.9500 278° West 410 472 38,000  Level Edmonton Center
Mon 08:47:38 AM 51.3000 -111.1500 278° West 410 472 38,000 -50 Level Edmonton Center
Mon 08:48:38 AM 51.3167 -111.3167 279° West 410 472 37,900 -1,050 Descending Edmonton Center
Mon 08:49:38 AM 51.3333 -111.4833 279° West 400 460 35,900 -2,000 Descending Edmonton Center
Mon 08:50:38 AM 51.3333 -111.6667 270° West 380 437 33,900 -1,800 Descending Edmonton Center
Mon 08:51:38 AM 51.3500 -111.8333 279° West 370 426 32,300 -1,750 Descending Edmonton Center
Mon 08:52:38 AM 51.3500 -111.9667 270° West 350 403 30,400 -1,800 Descending Edmonton Center
Mon 08:53:38 AM 51.3833 -112.1333 288° West 340 391 28,700 -1,800 Descending Edmonton Center
Mon 08:54:38 AM 51.3833 -112.2833 270° West 330 380 26,800 -1,950 Descending Edmonton Center
Mon 08:55:38 AM 51.4000 -112.4167 281° West 310 357 24,800 -1,900 Descending Edmonton Center
Mon 08:56:38 AM 51.4000 -112.5500 270° West 310 357 23,000 -1,600 Descending Edmonton Center
Mon 08:57:38 AM 51.4167 -112.6833 281° West 300 345 21,600 -1,400 Descending Edmonton Center
Mon 08:58:38 AM 51.4167 -112.8167 270° West 280 322 20,200 -1,400 Descending Edmonton Center
Mon 08:59:38 AM 51.4333 -112.9333 283° West 270 311 18,800 -1,300 Descending Edmonton Center
Mon 09:00:38 AM 51.4333 -113.0500 270° West 270 311 17,600 -1,350 Descending Edmonton Center
Mon 09:01:38 AM 51.4333 -113.1833 270° West 270 311 16,100 -1,300 Descending Edmonton Center
Mon 09:02:38 AM 51.4333 -113.2833 270° West 260 299 15,000 -1,000 Descending Edmonton Center
Mon 09:03:38 AM 51.3833 -113.3833 231° Southwest 260 299 14,100 -950 Descending Edmonton Center
Mon 09:04:38 AM 51.3500 -113.4667 237° Southwest 260 299 13,100 -1,000 Descending Edmonton Center
Mon 09:05:38 AM 51.3167 -113.5667 242° Southwest 250 288 12,100 -1,050 Descending Edmonton Center
Mon 09:06:38 AM 51.2500 -113.6667 223° Southwest 250 288 11,000 -1,000 Descending Edmonton Center
Mon 09:07:38 AM 51.2667 -113.7500 288° West 250 288 10,100 -1,000 Descending Edmonton Center
Mon 09:08:38 AM 51.2667 -113.8500 270° West 240 276 9,000 -850 Descending Edmonton Center
Mon 09:09:38 AM 51.3167 -113.9167 320° Northwest 230 265 8,400 -650 Descending Edmonton Center
Mon 09:10:38 AM 51.3500 -113.9833 309° West 190 219 7,700 -950 Descending Edmonton Center
Mon 09:11:38 AM 51.3333 -114.0667 252° West 190 219 6,500 -600 Descending Edmonton Center
Mon 09:12:38 AM 51.3000 -114.0500 163° South 160 184 6,500  Level Edmonton Center
Mon 09:13:38 AM 51.2500 -114.0500 180° South 150 173 6,500 -200 Level Edmonton Center
Mon 09:14:38 AM 51.2167 -114.0333 163° South 150 173 6,100 -650 Descending Edmonton Center
Mon 09:15:38 AM 51.1667 -114.0500 192° South 150 173 5,200 -850 Descending Edmonton Center
Mon 09:16:38 AM 51.1333 -114.0500 180° South 130 150 4,400 -750 Descending Edmonton Center
Mon 09:17:38 AM 51.1000 -114.0333 163° South 130 150 3,700 -400 Descending Edmonton Center
Mon 09:18:38 AM 51.0833 -114.0333 180° South 30 35 3,600 -14 Descending Edmonton Center
Mon 09:24:38 AM 51.1000 -114.0333 360° North 20 23 3,600  Level Edmonton Center

Login

Don't have an account? Register now (free) for customized features, flight alerts, and more!